Startpagina
METAR-TAF:

METAR-TAF

Vliegvelden :

Internationale Luchthaven van Peking

Peking, China

breedte: 39-56N, lengte: 116-17E, hoogte: 55 m

Actueel weer

Dit bericht is 15 minuten geleden gemaakt, om 23:00 UTC
Wind 4 kt uit het noorden
Temperatuur 22°C
Vochtigheid 50%
Druk 1009 hPa
Zicht 10 km of meer
geen wolken onder 1500 m en geen cumulonimbus

METAR: ZBAA 262300Z 01002MPS CAVOK 22/11 Q1009 NOSIG

Tijdstip: 07:15 (23:15 UTC)

Verwachting

Dit bericht is 7 uur en het 55 minuten geleden gemaakt, om 15:20 UTC
Verwachting geldig van 26 om 18 UTC tot 27 om 18 UTC
Wind 8 kt uit het noordnoordwesten
Zicht 10 km of meer
geen wolken onder 1500 m en geen cumulonimbus

TAF: ZBAA 261520Z 2618/2718 34004MPS CAVOK TX32/2707Z TN17/2621Z

Waarnemingen en weersverwachtingen van meer dan 4000 vliegvelden (METAR en TAF).

De beschikbare stations zijn de gele en rode punten op de kaart.

Ga met uw muis naar het station om de naam te zien.

Klik dan om waarnemingen en weersverwachtingen te zien.

kaart wijzigen: klik op de groene knoppen met een zwart kruis om in te zoomen, op de groene knop met een streepje om uit te zoomen of op de groene pijlen voor aangrenzende kaarten.


METAR-TAF: